Skip Navigation LinksHome page > Weather > Current weather Skip Navigation Links

Current Weather

Williamsport Rgnl, Williamsport, Penn.

For information only: do not use for flight planning or navigation.
Latest weather
Observation time Monday, May 22, 2017 10:54 AM EDT
Local time Monday, May 22, 2017 11:39 AM EDT
Flight conditions Marginal Visual Meteorological Conditions
Winds
Wind direction East-Northeast (70°)
Wind speed 13 mph
Wind gusting to 17 mph
Visibility 10 mi.
Sky condition
Ceiling 1,700 ft. overcast
Cloud layer overcast 1,700 ft.
Temperature 60°F
Dewpoint 53°F
Altimeter 30.02 in.Hg
Pressure change last 3 hours0.04 in.Hg
Pressure falling more slowly
Derived measurements
Relative humidity 78%
Density altitude 680 ft.
Sea-level pressure 30.01 in.Hg
Remarks
Automated weather observing station with precipitation discriminator.
METAR KIPT 221454Z 07011G15KT 10SM OVC017 16/12 A3002 RMK AO2 SLP163 T01560117 56015

Settings

Location code

InnerDrive.Weather 4.0.6144.1 Release CLR 4.0.30319.36366
Copyright ©2015 Inner Drive Technology. All rights reserved. Portions Copyright ©1986-2015 David Braverman.

Find weather

Site navigation


Skip Navigation Links

Place info

Page info

PayPal - The safer, easier way to pay online!

Return home.

Copyright ©2017 Inner Drive Technology. Purveyors of fine, hand-crafted computer software. Page printed 2017-05-22T15:39:34 UTC.